Aviation Digital Data Service (ADDS)

Output produced by TAFs form (2114 UTC 20 November 2017)
found at http://www.aviationweather.gov/adds/tafs/
 
KMKT 201720Z 2018/2118 21013KT P6SM BKN250 
     FM210300 24010KT P6SM SCT250 
     FM210500 28011KT P6SM SCT250 
     FM210800 30014G22KT P6SM SCT250 
     FM211200 31020G30KT P6SM SCT080 
     FM211600 32023G31KT P6SM SCT200
       
KRST 202003Z 2020/2118 20018G25KT P6SM BKN250 
     FM210600 27012KT P6SM SCT250 
     FM210900 30015G23KT P6SM BKN200 
     FM211200 31019G29KT P6SM BKN030 
     FM211500 31022G32KT P6SM BKN150
       
KMSP 202100Z 2021/2124 21008KT P6SM BKN150 
     FM210100 22010KT P6SM BKN200 
     FM210400 27011KT P6SM SCT250 
     FM210800 29015G22KT P6SM BKN050 
     FM211200 30019G28KT P6SM OVC050 
     FM211700 31021G30KT P6SM SCT150